Time;durP1;ratioP1;P1;durP2;ratioP2;P2;SDS_P1;SDS_P2;PMS_P1;PMS_P2;Temp;Humidity;BMP_temperature;BMP_pressure;BME280_temperature;BME280_humidity;BME280_pressure;Samples;Min_cycle;Max_cycle;Signal;HPM_P1;HPM_P2
2021/10/17 00:00:27;;;;;;;3.25;1.90;;;;;;;8.44;nan;102104.28;5098209;27;20171;-47
2021/10/17 00:02:53;;;;;;;7.35;2.22;;;;;;;8.47;nan;102099.38;5098014;27;20038;-50
2021/10/17 00:05:21;;;;;;;2.85;1.65;;;;;;;8.63;nan;102097.34;5096530;27;20236;-47
2021/10/17 00:07:47;;;;;;;6.75;2.25;;;;;;;8.53;nan;102097.72;5097848;28;20042;-47
2021/10/17 00:10:16;;;;;;;5.35;1.48;;;;;;;8.51;nan;102090.94;5100679;27;20145;-49
2021/10/17 00:12:42;;;;;;;2.92;1.70;;;;;;;8.50;nan;102092.78;5099116;27;20034;-48
2021/10/17 00:15:11;;;;;;;6.90;1.55;;;;;;;8.45;nan;102098.75;5095869;27;20024;-47
2021/10/17 00:17:36;;;;;;;3.88;1.50;;;;;;;8.43;nan;102097.28;5096557;27;20069;-49
2021/10/17 00:20:04;;;;;;;3.97;1.60;;;;;;;8.46;nan;102091.56;5097580;27;20019;-48
2021/10/17 00:22:30;;;;;;;4.65;1.73;;;;;;;8.42;nan;102096.44;5100817;27;20550;-47
2021/10/17 00:24:55;;;;;;;2.75;1.40;;;;;;;8.33;nan;102094.97;5096500;28;20035;-50
2021/10/17 00:27:21;;;;;;;4.57;1.73;;;;;;;8.44;nan;102096.28;5100767;28;20189;-47
2021/10/17 00:29:46;;;;;;;6.63;1.45;;;;;;;8.47;nan;102095.88;5099025;27;20076;-47
2021/10/17 00:32:13;;;;;;;4.00;1.48;;;;;;;8.49;nan;102093.81;5097956;28;20073;-48
2021/10/17 00:34:38;;;;;;;5.25;1.80;;;;;;;8.54;nan;102095.88;5096940;27;20106;-48
2021/10/17 00:37:05;;;;;;;3.70;1.70;;;;;;;8.48;nan;102089.50;5095803;27;20497;-47
2021/10/17 00:39:31;;;;;;;3.28;1.50;;;;;;;8.53;nan;102087.03;5096458;27;20038;-50
2021/10/17 00:42:01;;;;;;;4.78;1.55;;;;;;;8.50;nan;102079.44;5096858;27;20390;-48
2021/10/17 00:44:26;;;;;;;8.57;1.60;;;;;;;8.61;nan;102091.38;5096372;28;20481;-47
2021/10/17 00:46:52;;;;;;;7.65;1.48;;;;;;;8.43;nan;102084.75;5098115;28;20046;-47
2021/10/17 00:49:19;;;;;;;4.97;1.40;;;;;;;8.59;nan;102078.22;5098217;27;20020;-48
2021/10/17 00:51:45;;;;;;;4.90;1.85;;;;;;;8.46;nan;102087.03;5093388;28;20066;-48
2021/10/17 00:54:13;;;;;;;5.72;1.90;;;;;;;8.55;nan;102084.16;5101495;27;20024;-48
2021/10/17 00:56:40;;;;;;;1.77;1.20;;;;;;;8.66;nan;102083.59;5097091;27;20394;-47
2021/10/17 00:59:07;;;;;;;4.82;1.98;;;;;;;8.61;nan;102083.34;5096740;27;20465;-47
2021/10/17 01:01:34;;;;;;;6.47;1.75;;;;;;;8.55;nan;102082.31;5095155;27;20095;-48
2021/10/17 01:04:00;;;;;;;4.22;1.65;;;;;;;8.64;nan;102085.66;5097091;27;20191;-48
2021/10/17 01:06:26;;;;;;;5.55;2.25;;;;;;;8.63;nan;102076.81;5095038;27;20189;-48
2021/10/17 01:08:51;;;;;;;5.85;1.60;;;;;;;8.51;nan;102083.75;5099546;27;21461;-49
2021/10/17 01:11:17;;;;;;;6.60;1.45;;;;;;;8.54;nan;102075.34;5098374;27;20038;-48
2021/10/17 01:13:42;;;;;;;4.22;1.90;;;;;;;8.53;nan;102076.34;5098319;28;20500;-47
2021/10/17 01:16:08;;;;;;;6.15;1.83;;;;;;;8.54;nan;102071.84;5095751;28;20047;-48
2021/10/17 01:18:33;;;;;;;5.40;1.63;;;;;;;8.44;nan;102072.25;5087008;28;20377;-49
2021/10/17 01:20:59;;;;;;;3.03;1.70;;;;;;;8.59;nan;102061.34;5093828;27;20023;-48
2021/10/17 01:23:25;;;;;;;6.72;1.67;;;;;;;8.50;nan;102066.09;5095305;28;20122;-48
2021/10/17 01:25:50;;;;;;;6.72;1.70;;;;;;;8.56;nan;102059.91;5094264;27;20070;-48
2021/10/17 01:28:16;;;;;;;3.90;1.73;;;;;;;8.62;nan;102063.66;5095827;28;20035;-47
2021/10/17 01:30:42;;;;;;;3.50;1.83;;;;;;;8.53;nan;102060.34;5094654;27;20082;-48
2021/10/17 01:33:08;;;;;;;4.13;1.80;;;;;;;8.55;nan;102063.63;5096911;28;20024;-47
2021/10/17 01:35:34;;;;;;;5.05;1.90;;;;;;;8.55;nan;102052.94;5097273;28;20492;-50
2021/10/17 01:38:00;;;;;;;6.13;2.15;;;;;;;8.57;nan;102050.88;5096940;27;20110;-48
2021/10/17 01:40:25;;;;;;;4.43;1.92;;;;;;;8.60;nan;102050.47;5096614;27;20175;-48
2021/10/17 01:42:52;;;;;;;7.13;1.90;;;;;;;8.56;nan;102041.22;5096041;28;20238;-48
2021/10/17 01:45:18;;;;;;;3.90;1.45;;;;;;;8.51;nan;102038.34;5098409;28;20015;-48
2021/10/17 01:47:52;;;;;;;5.93;2.08;;;;;;;8.47;nan;102029.09;5098012;27;20069;-49
2021/10/17 01:50:19;;;;;;;3.30;1.67;;;;;;;8.52;nan;102031.97;5092964;28;20270;-47
2021/10/17 01:52:45;;;;;;;7.63;2.05;;;;;;;8.50;nan;102034.03;5094903;28;20026;-49
2021/10/17 01:55:11;;;;;;;4.40;1.70;;;;;;;8.42;nan;102028.88;5093401;27;20024;-49
2021/10/17 01:57:37;;;;;;;7.45;1.75;;;;;;;8.49;nan;102029.72;5098287;27;20481;-48
2021/10/17 02:00:05;;;;;;;5.90;1.90;;;;;;;8.49;nan;102027.03;5095048;27;20069;-47
2021/10/17 02:02:30;;;;;;;7.00;1.80;;;;;;;8.40;nan;102020.22;5097328;27;20040;-49
2021/10/17 02:04:56;;;;;;;3.05;1.85;;;;;;;8.44;nan;102019.66;5095077;27;20031;-51
2021/10/17 02:07:22;;;;;;;4.28;1.92;;;;;;;8.41;nan;102017.34;5097457;27;20386;-48
2021/10/17 02:09:47;;;;;;;5.47;1.60;;;;;;;8.38;nan;102020.44;5096486;27;20381;-50
2021/10/17 02:12:14;;;;;;;3.97;2.58;;;;;;;8.38;nan;102016.94;5097134;28;20027;-47
2021/10/17 02:14:40;;;;;;;4.88;1.63;;;;;;;8.40;nan;102015.72;5094566;27;20028;-48
2021/10/17 02:17:06;;;;;;;6.53;1.88;;;;;;;8.36;nan;102022.50;5093722;28;20059;-47
2021/10/17 02:19:32;;;;;;;4.55;2.03;;;;;;;8.42;nan;102015.50;5094842;28;20035;-49
2021/10/17 02:21:57;;;;;;;4.13;1.80;;;;;;;8.38;nan;102014.28;5094650;27;20019;-47
2021/10/17 02:24:23;;;;;;;5.75;2.20;;;;;;;8.17;nan;102008.03;5095534;28;20039;-47
2021/10/17 02:26:48;;;;;;;7.00;2.22;;;;;;;8.32;nan;102002.53;5095774;27;20114;-48
2021/10/17 02:29:14;;;;;;;4.70;2.10;;;;;;;8.30;nan;102001.91;5093742;28;20478;-48
2021/10/17 02:31:39;;;;;;;3.80;1.92;;;;;;;8.25;nan;102001.69;5095720;27;20028;-47
2021/10/17 02:34:05;;;;;;;5.00;1.88;;;;;;;8.25;nan;101998.19;5094396;28;20068;-48
2021/10/17 02:36:30;;;;;;;4.15;1.80;;;;;;;8.27;nan;101998.84;5094064;27;20027;-48
2021/10/17 02:38:56;;;;;;;3.53;1.98;;;;;;;8.25;nan;102000.84;5092348;27;20022;-48
2021/10/17 02:41:22;;;;;;;7.45;1.60;;;;;;;8.26;nan;101998.00;5096857;28;20020;-47
2021/10/17 02:43:47;;;;;;;3.53;1.77;;;;;;;8.28;nan;101992.47;5092211;28;20530;-47
2021/10/17 02:46:13;;;;;;;3.40;1.85;;;;;;;8.23;nan;101997.56;5098005;28;20509;-49
2021/10/17 02:48:38;;;;;;;3.90;2.13;;;;;;;8.24;nan;101993.88;5094929;28;20028;-47
2021/10/17 02:51:04;;;;;;;8.93;2.58;;;;;;;8.13;nan;101985.44;5094839;28;20034;-47
2021/10/17 02:53:29;;;;;;;4.72;1.80;;;;;;;8.10;nan;101977.03;5095201;28;20036;-47
2021/10/17 02:55:55;;;;;;;6.03;1.60;;;;;;;8.05;nan;101982.13;5094874;28;20058;-47
2021/10/17 02:58:20;;;;;;;3.75;1.70;;;;;;;7.87;nan;101977.34;5096447;28;20043;-47
2021/10/17 03:00:46;;;;;;;5.07;1.95;;;;;;;7.80;nan;101971.16;5072331;28;20385;-48
2021/10/17 03:03:11;;;;;;;2.58;1.90;;;;;;;7.67;nan;101973.78;5093499;28;20024;-49
2021/10/17 03:05:37;;;;;;;7.00;2.00;;;;;;;7.35;nan;101968.06;5092908;28;20020;-48
2021/10/17 03:08:02;;;;;;;9.38;2.58;;;;;;;7.27;nan;101960.25;5093301;28;20023;-47
2021/10/17 03:10:28;;;;;;;6.32;1.80;;;;;;;7.19;nan;101969.25;5093814;28;20107;-47
2021/10/17 03:12:53;;;;;;;7.57;2.38;;;;;;;7.11;nan;101966.72;5092929;28;20080;-48
2021/10/17 03:15:19;;;;;;;8.20;2.45;;;;;;;7.06;nan;101968.31;5095286;28;20027;-48
2021/10/17 03:17:45;;;;;;;4.68;2.10;;;;;;;7.02;nan;101965.22;5093943;28;20165;-48
2021/10/17 03:20:11;;;;;;;4.55;2.15;;;;;;;7.01;nan;101968.09;5091271;28;20065;-49
2021/10/17 03:22:38;;;;;;;5.47;1.90;;;;;;;6.79;nan;101960.13;5097624;28;20055;-47
2021/10/17 03:25:05;;;;;;;5.22;2.40;;;;;;;6.86;nan;101965.53;5094466;28;20034;-47
2021/10/17 03:27:30;;;;;;;5.95;2.33;;;;;;;6.86;nan;101965.53;5096565;28;20036;-47
2021/10/17 03:29:56;;;;;;;5.60;2.20;;;;;;;6.85;nan;101967.38;5096459;28;20027;-47
2021/10/17 03:32:21;;;;;;;4.50;2.10;;;;;;;6.97;nan;101964.97;5093786;28;20549;-47
2021/10/17 03:34:47;;;;;;;5.13;2.40;;;;;;;7.03;nan;101971.38;5097106;28;20051;-47
2021/10/17 03:37:12;;;;;;;5.60;1.83;;;;;;;7.04;nan;101978.34;5099428;28;20065;-47
2021/10/17 03:39:38;;;;;;;4.95;2.10;;;;;;;7.09;nan;101982.06;5092601;28;20039;-49
2021/10/17 03:42:04;;;;;;;5.30;2.50;;;;;;;7.17;nan;101984.56;5095164;28;20104;-48
2021/10/17 03:44:29;;;;;;;4.78;2.88;;;;;;;7.03;nan;101987.38;5095239;28;20031;-49
2021/10/17 03:46:55;;;;;;;6.38;3.17;;;;;;;7.01;nan;101992.91;5093781;28;20041;-48
2021/10/17 03:49:20;;;;;;;4.10;2.33;;;;;;;7.10;nan;101990.91;5094226;28;20035;-47
2021/10/17 03:51:46;;;;;;;5.03;2.60;;;;;;;7.06;nan;101990.47;5093036;28;20049;-47
2021/10/17 03:54:11;;;;;;;6.68;2.60;;;;;;;7.09;nan;101994.56;5095063;28;20035;-48
2021/10/17 03:56:37;;;;;;;4.00;2.35;;;;;;;7.07;nan;101993.94;5095911;28;20486;-47
2021/10/17 03:59:02;;;;;;;3.30;2.35;;;;;;;7.09;nan;101992.72;5093344;27;20366;-47
2021/10/17 04:01:30;;;;;;;4.35;2.22;;;;;;;7.13;nan;101991.31;5080764;28;20378;-48
2021/10/17 04:03:58;;;;;;;5.70;2.53;;;;;;;7.17;nan;101987.25;5098399;27;20111;-49
2021/10/17 04:06:23;;;;;;;3.70;2.28;;;;;;;7.22;nan;101987.50;5098706;27;20024;-49
2021/10/17 04:08:49;;;;;;;5.05;2.92;;;;;;;7.16;nan;101976.78;5099076;27;20347;-48
2021/10/17 04:11:14;;;;;;;6.60;3.88;;;;;;;7.22;nan;101978.69;5099958;27;20055;-47
2021/10/17 04:13:40;;;;;;;6.70;4.72;;;;;;;7.23;nan;101983.00;5098890;27;20019;-47
2021/10/17 04:16:06;;;;;;;9.55;4.28;;;;;;;7.17;nan;101978.44;5098366;27;20049;-48
2021/10/17 04:18:32;;;;;;;7.68;3.72;;;;;;;7.24;nan;101984.63;5094313;27;20031;-48
2021/10/17 04:20:58;;;;;;;6.05;3.45;;;;;;;7.17;nan;101981.91;5097520;27;20091;-47
2021/10/17 04:23:24;;;;;;;5.20;3.15;;;;;;;7.18;nan;101977.41;5098829;27;20020;-47
2021/10/17 04:25:49;;;;;;;4.45;2.40;;;;;;;7.14;nan;101965.50;5101758;27;20399;-47
2021/10/17 04:28:15;;;;;;;8.10;2.22;;;;;;;7.13;nan;101971.84;5098652;27;20019;-47
2021/10/17 04:30:41;;;;;;;6.70;2.53;;;;;;;7.18;nan;101964.94;5097276;27;20343;-47
2021/10/17 04:33:06;;;;;;;9.40;2.95;;;;;;;7.08;nan;101963.63;5095585;27;20385;-47
2021/10/17 04:35:38;;;;;;;9.65;2.60;;;;;;;7.08;nan;101958.28;5096620;27;20028;-46
2021/10/17 04:38:05;;;;;;;6.63;2.55;;;;;;;7.02;nan;101965.22;5098190;27;20067;-46
2021/10/17 04:40:32;;;;;;;8.88;2.97;;;;;;;7.01;nan;101960.91;5097017;27;20069;-47
2021/10/17 04:42:57;;;;;;;8.23;3.15;;;;;;;7.01;nan;101960.09;5097520;27;20019;-47
2021/10/17 04:45:23;;;;;;;4.40;2.60;;;;;;;7.04;nan;101967.69;5094438;27;20493;-48
2021/10/17 04:47:48;;;;;;;7.97;2.80;;;;;;;7.01;nan;101960.09;5098084;27;20123;-48
2021/10/17 04:50:14;;;;;;;6.63;2.50;;;;;;;6.93;nan;101961.88;5096000;28;20039;-47
2021/10/17 04:52:39;;;;;;;8.07;2.72;;;;;;;6.79;nan;101960.13;5097166;27;20107;-47
2021/10/17 04:55:08;;;;;;;5.95;2.50;;;;;;;6.70;nan;101961.28;5097554;27;20023;-49
2021/10/17 04:57:33;;;;;;;5.93;2.83;;;;;;;6.75;nan;101963.38;5079191;28;20496;-48
2021/10/17 04:59:59;;;;;;;5.53;2.60;;;;;;;6.85;nan;101963.88;5097449;27;20027;-47
2021/10/17 05:02:24;;;;;;;5.93;2.95;;;;;;;6.72;nan;101958.44;5097177;27;20027;-47
2021/10/17 05:04:50;;;;;;;7.93;3.58;;;;;;;6.73;nan;101963.56;5096883;27;20031;-48
2021/10/17 05:07:16;;;;;;;7.03;2.65;;;;;;;6.72;nan;101964.59;5094262;27;20034;-49
2021/10/17 05:09:41;;;;;;;7.70;2.83;;;;;;;6.59;nan;101964.47;5096026;27;20031;-47
2021/10/17 05:12:07;;;;;;;6.53;3.13;;;;;;;6.61;nan;101962.44;5097466;28;20473;-47
2021/10/17 05:14:32;;;;;;;5.53;2.75;;;;;;;6.65;nan;101963.72;5096981;27;20082;-47
2021/10/17 05:16:58;;;;;;;10.85;3.80;;;;;;;6.61;nan;101967.75;5092530;28;20362;-48
2021/10/17 05:19:23;;;;;;;9.88;2.72;;;;;;;6.61;nan;101957.09;5097521;28;20024;-48
2021/10/17 05:21:48;;;;;;;9.55;2.83;;;;;;;6.60;nan;101955.47;5096282;27;20047;-46
2021/10/17 05:24:14;;;;;;;5.32;2.47;;;;;;;6.64;nan;101954.91;5101434;27;20035;-48
2021/10/17 05:26:39;;;;;;;6.90;2.85;;;;;;;6.73;nan;101960.91;5073153;27;20024;-47
2021/10/17 05:29:05;;;;;;;4.63;3.00;;;;;;;6.81;nan;101959.94;5096464;27;20032;-49
2021/10/17 05:31:30;;;;;;;11.95;3.40;;;;;;;6.86;nan;101961.00;5100456;27;20023;-47
2021/10/17 05:33:56;;;;;;;6.72;3.03;;;;;;;6.88;nan;101958.97;5082946;28;20497;-47
2021/10/17 05:36:21;;;;;;;5.70;3.33;;;;;;;6.82;nan;101959.75;5099390;27;20027;-46
2021/10/17 05:38:47;;;;;;;8.65;3.20;;;;;;;6.91;nan;101971.91;5095189;28;20039;-47
2021/10/17 05:41:12;;;;;;;7.78;2.95;;;;;;;6.95;nan;101970.50;5094789;28;20080;-48
2021/10/17 05:43:38;;;;;;;7.90;3.33;;;;;;;6.98;nan;101972.75;5096572;27;20072;-50
2021/10/17 05:46:03;;;;;;;7.47;3.05;;;;;;;6.96;nan;101973.97;5096048;27;20027;-47
2021/10/17 05:48:29;;;;;;;6.30;3.35;;;;;;;6.93;nan;101974.38;5093944;27;20433;-47
2021/10/17 05:50:54;;;;;;;7.43;4.40;;;;;;;7.03;nan;101976.72;5095803;27;20062;-48
2021/10/17 05:53:20;;;;;;;7.50;3.60;;;;;;;7.08;nan;101979.59;5084799;27;20058;-47
2021/10/17 05:55:45;;;;;;;5.43;3.38;;;;;;;7.08;nan;101982.28;5098061;28;20042;-48
2021/10/17 05:58:11;;;;;;;9.50;3.30;;;;;;;7.12;nan;101984.34;5098291;28;20035;-47
2021/10/17 06:00:36;;;;;;;9.40;3.50;;;;;;;7.17;nan;101991.75;5094296;27;20024;-47
2021/10/17 06:03:02;;;;;;;8.80;3.20;;;;;;;7.19;nan;101982.56;5099796;27;20271;-47
2021/10/17 06:05:27;;;;;;;5.63;2.55;;;;;;;7.27;nan;101984.25;5099190;28;20059;-48
2021/10/17 06:07:53;;;;;;;9.82;2.67;;;;;;;7.25;nan;101978.28;5092704;27;20055;-47
2021/10/17 06:10:19;;;;;;;4.88;2.58;;;;;;;7.35;nan;101975.25;5099480;27;20063;-47
2021/10/17 06:12:44;;;;;;;8.32;3.22;;;;;;;7.31;nan;101982.00;5097515;28;20050;-47
2021/10/17 06:15:10;;;;;;;8.30;2.78;;;;;;;7.29;nan;101982.19;5096418;28;20100;-48
2021/10/17 06:17:36;;;;;;;7.43;3.00;;;;;;;7.32;nan;101973.81;5071552;28;20031;-47
2021/10/17 06:20:06;;;;;;;8.02;3.08;;;;;;;7.33;nan;101979.97;5097861;28;20102;-47
2021/10/17 06:22:31;;;;;;;4.80;3.15;;;;;;;7.40;nan;101983.50;5099410;28;20028;-47
2021/10/17 06:24:57;;;;;;;7.13;2.90;;;;;;;7.38;nan;101980.22;5097068;28;20060;-47
2021/10/17 06:27:22;;;;;;;11.65;3.20;;;;;;;7.44;nan;101985.56;5097394;27;20034;-48
2021/10/17 06:29:48;;;;;;;6.72;2.67;;;;;;;7.51;nan;101989.09;5095880;27;20034;-47
2021/10/17 06:32:13;;;;;;;5.15;2.78;;;;;;;7.54;nan;101993.19;5092792;28;20059;-48
2021/10/17 06:34:39;;;;;;;6.35;2.92;;;;;;;7.51;nan;101988.25;5093194;28;20424;-48
2021/10/17 06:37:04;;;;;;;7.55;3.10;;;;;;;7.41;nan;101990.47;5073696;28;20067;-47
2021/10/17 06:39:30;;;;;;;4.78;2.47;;;;;;;7.57;nan;101998.16;5098687;28;20088;-48
2021/10/17 06:41:55;;;;;;;8.50;2.88;;;;;;;7.43;nan;101997.25;5094222;27;20024;-47
2021/10/17 06:44:22;;;;;;;6.80;2.90;;;;;;;7.52;nan;102009.41;5098629;28;20036;-47
2021/10/17 06:46:49;;;;;;;6.68;3.17;;;;;;;7.58;nan;102003.28;5094846;28;20387;-47
2021/10/17 06:49:15;;;;;;;7.82;3.08;;;;;;;7.66;nan;101998.81;5091340;28;20501;-47
2021/10/17 06:51:41;;;;;;;5.93;2.88;;;;;;;7.77;nan;102003.59;5092637;28;20039;-49
2021/10/17 06:54:06;;;;;;;8.43;2.75;;;;;;;7.82;nan;102001.13;5097018;28;20109;-47
2021/10/17 06:56:32;;;;;;;7.47;3.45;;;;;;;7.93;nan;101997.09;5100531;28;20124;-49
2021/10/17 06:58:58;;;;;;;7.80;2.80;;;;;;;7.96;nan;101994.84;5096073;28;20019;-47
2021/10/17 07:01:23;;;;;;;4.45;2.55;;;;;;;8.05;nan;101984.78;5094576;28;20477;-47
2021/10/17 07:03:48;;;;;;;6.13;3.22;;;;;;;8.11;nan;101986.66;5093214;28;20027;-48
2021/10/17 07:06:14;;;;;;;6.07;3.30;;;;;;;8.22;nan;101990.59;5093902;28;20168;-47
2021/10/17 07:08:40;;;;;;;8.13;3.42;;;;;;;8.31;nan;101986.72;5100340;28;20051;-49
2021/10/17 07:11:05;;;;;;;8.57;3.53;;;;;;;8.33;nan;101990.81;5100410;28;20028;-47
2021/10/17 07:13:31;;;;;;;6.72;3.72;;;;;;;8.29;nan;101989.59;5102026;28;20035;-47
2021/10/17 07:15:57;;;;;;;7.60;4.47;;;;;;;8.33;nan;101988.16;5092962;28;20119;-48
2021/10/17 07:18:23;;;;;;;6.45;3.38;;;;;;;8.42;nan;101999.47;5097232;28;20107;-47
2021/10/17 07:20:49;;;;;;;6.95;3.20;;;;;;;8.44;nan;101984.09;5097261;28;20039;-47
2021/10/17 07:23:15;;;;;;;8.88;3.17;;;;;;;8.47;nan;101986.38;5086592;28;20028;-50
2021/10/17 07:25:40;;;;;;;6.15;2.83;;;;;;;8.47;nan;101986.38;5092858;28;20381;-48
2021/10/17 07:28:06;;;;;;;5.20;3.35;;;;;;;8.48;nan;101980.81;5071288;28;20042;-48
2021/10/17 07:30:31;;;;;;;4.88;2.83;;;;;;;8.62;nan;101987.00;5098869;28;20043;-49
2021/10/17 07:32:57;;;;;;;7.75;3.00;;;;;;;8.66;nan;101990.91;5091752;28;20031;-49
2021/10/17 07:35:22;;;;;;;7.50;3.30;;;;;;;8.61;nan;101982.66;5092685;27;20206;-48
2021/10/17 07:37:48;;;;;;;7.50;2.83;;;;;;;8.73;nan;101978.34;5099908;27;20040;-49
2021/10/17 07:40:13;;;;;;;10.65;2.95;;;;;;;8.77;nan;101982.25;5100696;27;20154;-47
2021/10/17 07:42:39;;;;;;;8.73;3.28;;;;;;;8.86;nan;101979.38;5098558;27;20034;-48
2021/10/17 07:45:06;;;;;;;7.72;2.92;;;;;;;8.82;nan;101981.66;5104818;27;20052;-48
2021/10/17 07:47:33;;;;;;;7.50;2.80;;;;;;;8.92;nan;101981.22;5099477;28;20329;-48
2021/10/17 07:49:59;;;;;;;8.65;3.28;;;;;;;8.94;nan;101984.50;5095769;27;20385;-49
2021/10/17 07:52:24;;;;;;;7.60;3.10;;;;;;;9.05;nan;101981.22;5100600;27;20038;-48
2021/10/17 07:54:50;;;;;;;10.00;3.67;;;;;;;9.16;nan;101980.59;5098870;27;20039;-48
2021/10/17 07:57:15;;;;;;;6.05;3.40;;;;;;;9.19;nan;101982.84;5091992;27;20027;-48
2021/10/17 07:59:41;;;;;;;6.22;3.20;;;;;;;9.20;nan;101987.16;5095635;27;20039;-48
2021/10/17 08:02:06;;;;;;;8.02;2.85;;;;;;;9.12;nan;101992.72;5075393;28;20299;-48
2021/10/17 08:04:32;;;;;;;5.07;2.75;;;;;;;8.97;nan;101989.44;5093810;27;20035;-48
2021/10/17 08:06:57;;;;;;;8.48;3.45;;;;;;;9.10;nan;101986.75;5092235;27;20405;-48
2021/10/17 08:09:23;;;;;;;8.73;3.28;;;;;;;9.15;nan;101981.59;5103865;27;20157;-47
2021/10/17 08:11:48;;;;;;;9.45;3.03;;;;;;;9.27;nan;101982.59;5101230;27;20035;-48
2021/10/17 08:14:13;;;;;;;4.40;2.67;;;;;;;9.39;nan;101986.28;5084063;28;20107;-49
2021/10/17 08:16:39;;;;;;;8.15;2.90;;;;;;;9.49;nan;101985.00;5097536;27;20100;-48
2021/10/17 08:19:05;;;;;;;6.35;2.88;;;;;;;9.50;nan;101981.31;5099215;27;20369;-48
2021/10/17 08:21:31;;;;;;;5.75;2.70;;;;;;;9.57;nan;101982.13;5094241;27;20046;-48
2021/10/17 08:23:57;;;;;;;6.25;3.50;;;;;;;9.71;nan;101973.03;5093079;27;20032;-48
2021/10/17 08:26:23;;;;;;;6.60;2.60;;;;;;;9.72;nan;101982.69;5097060;27;20052;-48
2021/10/17 08:28:48;;;;;;;7.85;2.80;;;;;;;9.92;nan;101977.25;5098133;27;20027;-48
2021/10/17 08:31:14;;;;;;;9.07;2.83;;;;;;;9.76;nan;101983.91;5105295;27;20700;-49
2021/10/17 08:33:40;;;;;;;5.30;2.58;;;;;;;9.96;nan;101989.97;5096733;27;20031;-51
2021/10/17 08:36:06;;;;;;;10.00;2.80;;;;;;;10.03;nan;101975.72;5099413;27;20032;-49
2021/10/17 08:38:31;;;;;;;6.78;2.90;;;;;;;10.01;nan;101978.63;5101608;27;20027;-50
2021/10/17 08:40:57;;;;;;;7.93;2.92;;;;;;;10.14;nan;101977.75;5101524;27;20142;-49
2021/10/17 08:43:24;;;;;;;6.35;2.58;;;;;;;10.19;nan;101969.88;5087674;28;20028;-48
2021/10/17 08:45:49;;;;;;;6.50;2.58;;;;;;;10.23;nan;101976.47;5102270;27;20032;-48
2021/10/17 08:48:16;;;;;;;6.80;3.08;;;;;;;10.24;nan;101975.47;5095289;27;20029;-50
2021/10/17 08:50:42;;;;;;;7.03;3.30;;;;;;;10.41;nan;101979.25;5095203;27;20114;-49
2021/10/17 08:53:08;;;;;;;6.13;2.90;;;;;;;10.28;nan;101973.97;5097410;27;20111;-49
2021/10/17 08:55:34;;;;;;;4.20;2.50;;;;;;;10.29;nan;101973.75;5099321;27;20032;-49
2021/10/17 08:57:59;;;;;;;6.03;3.05;;;;;;;10.15;nan;101977.53;5094912;27;20389;-50
2021/10/17 09:00:27;;;;;;;5.55;3.30;;;;;;;10.38;nan;101982.34;5091237;27;20027;-48
2021/10/17 09:02:53;;;;;;;4.93;2.83;;;;;;;10.41;nan;101984.63;5095511;27;20035;-49
2021/10/17 09:05:32;;;;;;;7.03;2.63;;;;;;;10.54;nan;101979.13;5098533;27;20028;-48
2021/10/17 09:07:57;;;;;;;4.38;2.40;;;;;;;10.64;nan;101978.66;5092426;28;20020;-49
2021/10/17 09:10:22;;;;;;;4.82;2.70;;;;;;;10.60;nan;101972.09;5102231;27;20027;-49
2021/10/17 09:12:48;;;;;;;6.45;2.55;;;;;;;10.44;nan;101978.00;5095212;27;20023;-49
2021/10/17 09:15:20;;;;;;;6.60;3.28;;;;;;;10.18;nan;101968.22;5092686;27;20043;-48
2021/10/17 09:18:17;;;;;;;11.15;3.00;;;;;;;10.28;nan;101973.97;5096851;27;20240;-51
2021/10/17 09:20:49;;;;;;;6.68;2.30;;;;;;;10.25;nan;101961.03;5090447;27;20118;-48
2021/10/17 09:23:14;;;;;;;6.80;2.40;;;;;;;10.35;nan;101973.94;5092492;27;20032;-48
2021/10/17 09:25:40;;;;;;;5.82;2.70;;;;;;;10.42;nan;101964.81;5095640;27;20035;-49
2021/10/17 09:28:15;;;;;;;9.35;3.13;;;;;;;10.63;nan;101966.31;5093915;27;20109;-48
2021/10/17 09:30:41;;;;;;;12.55;3.78;;;;;;;10.43;nan;101971.00;5097234;27;20052;-49
2021/10/17 09:33:19;;;;;;;7.50;3.08;;;;;;;10.66;nan;101975.75;5096135;27;20481;-50
2021/10/17 09:35:45;;;;;;;5.95;2.92;;;;;;;10.51;nan;101968.88;5098766;27;20270;-50
2021/10/17 09:38:10;;;;;;;8.40;3.28;;;;;;;10.63;nan;101976.22;5095941;28;20076;-49
2021/10/17 09:40:38;;;;;;;6.65;2.60;;;;;;;10.79;nan;101979.16;5097504;27;20028;-50
2021/10/17 09:43:15;;;;;;;5.65;3.45;;;;;;;10.93;nan;101976.34;5097994;27;20027;-49
2021/10/17 09:45:42;;;;;;;8.25;2.63;;;;;;;10.88;nan;101975.16;5101979;27;20118;-50
2021/10/17 09:48:27;;;;;;;7.50;2.67;;;;;;;11.31;nan;101978.84;5096462;27;20116;-50
2021/10/17 09:51:26;;;;;;;8.45;2.67;;;;;;;11.32;nan;101975.97;5093566;27;20023;-50
2021/10/17 09:54:00;;;;;;;5.78;2.63;;;;;;;11.36;nan;101976.34;5050417;27;20057;-50
2021/10/17 09:56:41;;;;;;;6.65;2.70;;;;;;;11.12;nan;101978.00;5097279;28;20477;-48
2021/10/17 09:59:11;;;;;;;6.18;2.80;;;;;;;11.08;nan;101982.19;5099494;27;20047;-49
2021/10/17 10:01:38;;;;;;;7.70;2.67;;;;;;;11.09;nan;101989.19;5073061;28;20025;-49
2021/10/17 10:04:06;;;;;;;5.45;2.70;;;;;;;11.10;nan;102001.56;5096053;27;20259;-51
2021/10/17 10:06:32;;;;;;;9.00;3.15;;;;;;;11.01;nan;101984.94;5100478;27;20028;-48
2021/10/17 10:09:07;;;;;;;9.50;2.80;;;;;;;11.09;nan;101986.50;5092577;28;20153;-50
2021/10/17 10:11:34;;;;;;;6.47;2.67;;;;;;;11.33;nan;101988.34;5091158;27;20565;-51
2021/10/17 10:14:03;;;;;;;4.65;2.83;;;;;;;11.46;nan;101982.00;5094685;28;20078;-50
2021/10/17 10:16:30;;;;;;;5.82;2.50;;;;;;;11.05;nan;101986.13;5091510;27;20114;-50
2021/10/17 10:19:00;;;;;;;7.15;2.55;;;;;;;11.20;nan;101977.75;5093198;28;20035;-49
2021/10/17 10:21:27;;;;;;;6.10;2.38;;;;;;;10.87;nan;101983.41;5095999;27;20031;-48
2021/10/17 10:23:56;;;;;;;6.68;2.67;;;;;;;10.86;nan;101982.59;5091207;28;20497;-50
2021/10/17 10:26:24;;;;;;;9.15;2.63;;;;;;;10.79;nan;101970.31;5094659;28;20070;-49
2021/10/17 10:28:51;;;;;;;8.52;2.97;;;;;;;10.90;nan;101972.25;5093591;27;20019;-49
2021/10/17 10:31:43;;;;;;;6.15;2.72;;;;;;;10.61;nan;101973.75;5091839;28;20031;-49
2021/10/17 10:34:13;;;;;;;9.57;2.88;;;;;;;10.56;nan;101971.69;5092151;27;20012;-50
2021/10/17 10:36:43;;;;;;;7.22;3.28;;;;;;;10.51;nan;101979.59;5093494;28;20497;-49
2021/10/17 10:39:14;;;;;;;8.40;3.30;;;;;;;10.57;nan;101984.06;5091958;28;20116;-48
2021/10/17 10:41:51;;;;;;;7.57;3.00;;;;;;;10.64;nan;101984.03;5100495;28;20457;-50
2021/10/17 10:44:32;;;;;;;6.18;2.60;;;;;;;10.84;nan;101983.88;5100460;28;20032;-49
2021/10/17 10:47:20;;;;;;;9.90;4.07;;;;;;;10.99;nan;101976.31;5092869;27;20439;-49
2021/10/17 10:49:48;;;;;;;9.05;3.28;;;;;;;11.20;nan;101983.13;5097254;28;20387;-49
2021/10/17 10:52:44;;;;;;;8.25;2.90;;;;;;;11.15;nan;101988.31;5093944;27;20019;-50
2021/10/17 10:55:13;;;;;;;7.95;3.45;;;;;;;11.10;nan;101978.25;5095822;28;20039;-50
2021/10/17 10:57:46;;;;;;;7.38;3.28;;;;;;;11.45;nan;101988.41;5095281;28;20505;-49
2021/10/17 11:00:16;;;;;;;10.52;3.30;;;;;;;11.12;nan;101986.06;5099526;28;20027;-49
2021/10/17 11:03:13;;;;;;;9.43;3.13;;;;;;;11.27;nan;101980.34;5091532;28;20223;-49
2021/10/17 11:05:40;;;;;;;8.57;3.20;;;;;;;11.05;nan;101986.13;5096125;28;20035;-49
2021/10/17 11:08:13;;;;;;;7.28;2.78;;;;;;;11.06;nan;101984.28;5092479;28;20114;-49
2021/10/17 11:10:40;;;;;;;8.15;3.33;;;;;;;11.33;nan;101987.53;5103512;27;20055;-51
2021/10/17 11:13:11;;;;;;;8.18;2.70;;;;;;;12.46;nan;101981.53;5095201;27;20028;-49
2021/10/17 11:15:39;;;;;;;10.55;2.75;;;;;;;12.89;nan;101981.25;5099632;28;20050;-47
2021/10/17 11:18:08;;;;;;;8.02;2.72;;;;;;;12.79;nan;101976.47;5103268;27;20027;-48
2021/10/17 11:20:42;;;;;;;6.53;2.85;;;;;;;12.23;nan;101980.44;5097929;27;20028;-48
2021/10/17 11:23:22;;;;;;;9.57;3.37;;;;;;;12.41;nan;101984.94;5099716;27;20114;-47
2021/10/17 11:25:52;;;;;;;6.43;2.92;;;;;;;12.40;nan;101980.59;5079404;28;20296;-50
2021/10/17 11:28:17;;;;;;;8.73;2.88;;;;;;;12.29;nan;101979.50;5096833;27;20031;-49
2021/10/17 11:30:43;;;;;;;5.10;2.40;;;;;;;12.20;nan;101980.88;5095572;27;20024;-51
2021/10/17 11:33:22;;;;;;;8.35;2.85;;;;;;;12.12;nan;101983.06;5095895;27;20157;-48
2021/10/17 11:35:48;;;;;;;8.07;2.40;;;;;;;12.19;nan;101981.09;5099284;27;20024;-48
2021/10/17 11:38:16;;;;;;;5.45;2.50;;;;;;;12.48;nan;101980.25;5098514;27;20024;-49
2021/10/17 11:40:42;;;;;;;7.05;2.90;;;;;;;13.47;nan;101972.34;5079565;27;20027;-50
2021/10/17 11:43:08;;;;;;;6.85;2.28;;;;;;;13.22;nan;101975.31;5098683;27;20035;-49
2021/10/17 11:45:42;;;;;;;7.45;2.47;;;;;;;14.26;nan;101978.72;5104945;27;20031;-49
2021/10/17 11:48:11;;;;;;;3.78;2.40;;;;;;;14.29;nan;101977.44;5100086;27;20069;-49